Madison, MN (56256)

2:46 AM CST on February 10, 2016 (GMT -0600)
Madison-Lac Qui Parle County | | Change Station
CLOSE
Current Station
Airport
Location: Madison,
Elevation: 1083 ft
Nearby Weather Stations

Elev 1083 ft 44.98 °N, 96.18 °W | Updated 13 minutes ago

Scattered Clouds
Scattered Clouds
12 °F
Feels Like 6 °F
N
4
Wind Variable Wind from NE

Today
High -- | Low -- °F
--% Chance of Precip.
Yesterday
High -- | Low -- °F
Precip. -- in
Pressure 30.13 in
Visibility 10.0 miles
Clouds Scattered Clouds 4800 ft
Windchill 6 °F
Dew Point 7 °F
Humidity 79%
Rainfall 0.00 in
Snow Depth Not available.
7:33 AM 5:44 PM
Waxing Crescent, 4% visible
METAR KDXX 100833Z AUTO 04003KT 10SM SCT048 M11/M14 A3013 RMK AO2
Pressure 30.13 in
Visibility 10.0 miles
Clouds Scattered Clouds 4800 ft
Windchill 6 °F
Dew Point 7 °F
Humidity 79%
Rainfall 0.00 in
Snow Depth Not available.
7:33 AM 5:44 PM
Waxing Crescent, 4% visible
METAR KDXX 100833Z AUTO 04003KT 10SM SCT048 M11/M14 A3013 RMK AO2

10-Day Weather Forecast

Almanac

Astronomy

Feb. 10, 2016 Rise Set
Actual Time
Civil Twilight
Nautical Twilight
Astronomical Twilight
Moon
Length of Visible Light
Length of Day
Tomorrow will be .
, % of the Moon is Illuminated

Today's Extremes

State Highs State Lows

Community

WunderPhotos

Upload Photos

1,891,826 photos uploaded!

WunderBlog® & News

Nearby

Air Quality

  Air Quality AQ Index Pollutant
Not available.

Snow Depth

Station Depth Elevation

Earthquake Activity

City Distance Mag. Time & Date
Minimum magnitude displayed is 2.5.

Coastal Water Temperatures

Place Temperature

Stations

Nearby Weather Stations

Station Location Temp. Windchill Dew Point Humidity Wind Precip. Elev Updated Type
                   

Watches & Warnings

There are currently no watches in effect.